Time;durP1;ratioP1;P1;durP2;ratioP2;P2;SDS_P1;SDS_P2;PMS_P1;PMS_P2;Temp;Humidity;BMP_temperature;BMP_pressure;BME280_temperature;BME280_humidity;BME280_pressure;Samples;Min_cycle;Max_cycle;Signal;HPM_P1;HPM_P2
2023/11/22 00:01:54;;;;;;;0.68;0.10;;;;;;;-1.57;70.57;102841.09;5077311;28;20389;-76
2023/11/22 00:04:21;;;;;;;0.20;0.10;;;;;;;-1.59;70.55;102838.47;5077035;28;20055;-69
2023/11/22 00:06:48;;;;;;;0.60;0.20;;;;;;;-1.61;70.82;102827.22;5076112;28;20058;-69
2023/11/22 00:09:15;;;;;;;0.63;0.20;;;;;;;-1.62;70.93;102835.69;5076578;28;20044;-69
2023/11/22 00:11:43;;;;;;;0.52;0.20;;;;;;;-1.64;70.54;102837.25;5076729;28;20049;-69
2023/11/22 00:14:10;;;;;;;0.30;0.28;;;;;;;-1.65;70.61;102837.16;5075624;28;20044;-69
2023/11/22 00:16:39;;;;;;;0.50;0.20;;;;;;;-1.68;70.15;102835.31;5075735;28;20160;-69
2023/11/22 00:19:06;;;;;;;0.55;0.20;;;;;;;-1.70;70.88;102839.44;5075993;28;20132;-69
2023/11/22 00:21:33;;;;;;;4.40;0.25;;;;;;;-1.73;70.39;102834.13;5075700;28;20048;-69
2023/11/22 00:24:00;;;;;;;0.55;0.30;;;;;;;-1.73;70.66;102835.78;5075683;28;20056;-69
2023/11/22 00:26:27;;;;;;;0.30;0.20;;;;;;;-1.75;70.69;102832.25;5076513;28;20389;-69
2023/11/22 00:28:55;;;;;;;0.43;0.20;;;;;;;-1.77;70.33;102833.81;5075563;28;20041;-69
2023/11/22 00:31:22;;;;;;;0.55;0.20;;;;;;;-1.80;70.92;102831.94;5076568;28;20150;-69
2023/11/22 00:33:48;;;;;;;1.17;0.10;;;;;;;-1.81;70.68;102835.28;5076237;28;20432;-69
2023/11/22 00:36:16;;;;;;;0.47;0.30;;;;;;;-1.84;70.61;102823.16;5076224;28;20051;-69
2023/11/22 00:38:43;;;;;;;0.77;0.20;;;;;;;-1.87;70.91;102834.91;5076417;28;20469;-69
2023/11/22 00:41:11;;;;;;;0.40;0.20;;;;;;;-1.89;71.25;102837.34;5075617;28;20050;-69
2023/11/22 00:43:38;;;;;;;2.05;0.20;;;;;;;-1.91;71.10;102833.78;5075163;28;20040;-69
2023/11/22 00:46:07;;;;;;;3.80;1.23;;;;;;;-1.93;70.44;102837.06;5076304;28;20040;-69
2023/11/22 00:48:33;;;;;;;0.30;0.20;;;;;;;-1.96;70.68;102824.94;5075237;28;20044;-69
2023/11/22 00:51:01;;;;;;;0.95;0.20;;;;;;;-1.97;70.46;102832.50;5076316;28;20470;-69
2023/11/22 00:53:28;;;;;;;0.38;0.20;;;;;;;-1.99;70.63;102828.94;5075126;28;20535;-69
2023/11/22 00:55:55;;;;;;;1.20;0.20;;;;;;;-2.03;71.48;102830.44;5075394;28;20056;-69
2023/11/22 00:58:22;;;;;;;2.63;0.63;;;;;;;-2.06;70.80;102828.56;5076252;28;20048;-69
2023/11/22 01:00:49;;;;;;;0.35;0.20;;;;;;;-2.07;70.82;102821.66;5075952;28;20055;-69
2023/11/22 01:03:17;;;;;;;0.90;0.20;;;;;;;-2.08;71.53;102824.13;5074829;28;20057;-76
2023/11/22 01:05:46;;;;;;;1.17;0.57;;;;;;;-2.09;70.68;102818.13;5074928;28;20489;-76
2023/11/22 01:08:13;;;;;;;0.50;0.30;;;;;;;-2.12;71.08;102814.47;5074864;28;20489;-76
2023/11/22 01:10:40;;;;;;;1.00;0.30;;;;;;;-2.18;71.41;102814.06;5075155;28;20087;-76
2023/11/22 01:13:07;;;;;;;1.27;0.30;;;;;;;-2.17;71.49;102814.16;5074959;28;20040;-81
2023/11/22 01:15:34;;;;;;;2.45;0.30;;;;;;;-2.17;70.68;102805.59;5075303;28;20041;-81
2023/11/22 01:18:01;;;;;;;0.52;0.30;;;;;;;-2.20;71.07;102798.59;5075070;28;20059;-81
2023/11/22 01:20:29;;;;;;;0.40;0.20;;;;;;;-2.22;70.64;102795.06;5075071;28;20048;-81
2023/11/22 01:22:56;;;;;;;1.52;0.20;;;;;;;-2.24;71.41;102799.19;5075157;28;20044;-81
2023/11/22 01:25:23;;;;;;;0.40;0.20;;;;;;;-2.27;71.58;102801.56;5075169;28;20135;-81
2023/11/22 01:27:50;;;;;;;0.60;0.20;;;;;;;-2.27;70.81;102806.66;5076040;28;20454;-81
2023/11/22 01:30:18;;;;;;;0.50;0.28;;;;;;;-2.29;71.26;102800.56;5074688;28;20118;-82
2023/11/22 01:32:45;;;;;;;0.60;0.38;;;;;;;-2.31;71.08;102797.88;5075973;28;20051;-81
2023/11/22 01:35:12;;;;;;;0.80;0.20;;;;;;;-2.32;70.90;102797.78;5074671;28;20546;-81
2023/11/22 01:37:40;;;;;;;0.60;0.30;;;;;;;-2.39;71.29;102793.03;5074671;28;20055;-81
2023/11/22 01:40:09;;;;;;;0.38;0.28;;;;;;;-2.36;71.00;102806.03;5074893;28;20413;-80
2023/11/22 01:42:37;;;;;;;0.93;0.30;;;;;;;-2.38;71.63;102797.38;5075660;28;20072;-81
2023/11/22 01:45:04;;;;;;;0.85;0.30;;;;;;;-2.39;71.16;102795.59;5074975;28;20102;-81
2023/11/22 01:47:31;;;;;;;0.32;0.30;;;;;;;-2.41;71.52;102789.50;5075210;28;20481;-81
2023/11/22 01:49:58;;;;;;;0.50;0.30;;;;;;;-2.43;71.38;102784.28;5074512;28;20052;-81
2023/11/22 01:52:26;;;;;;;0.40;0.20;;;;;;;-2.44;71.04;102781.63;5074230;28;20055;-81
2023/11/22 01:54:54;;;;;;;1.50;0.28;;;;;;;-2.45;71.24;102790.97;5074816;28;20485;-81
2023/11/22 01:57:22;;;;;;;1.13;0.30;;;;;;;-2.46;71.66;102796.00;5074138;28;20048;-81
2023/11/22 01:59:48;;;;;;;4.55;0.40;;;;;;;-2.47;70.96;102796.78;5075598;28;20420;-81
2023/11/22 02:02:15;;;;;;;0.98;0.40;;;;;;;-2.49;71.46;102786.44;5075178;28;20394;-81
2023/11/22 02:04:43;;;;;;;0.40;0.30;;;;;;;-2.50;71.37;102787.22;5075733;28;20055;-80
2023/11/22 02:07:10;;;;;;;0.52;0.30;;;;;;;-2.52;71.19;102787.09;5074174;28;20139;-81
2023/11/22 02:09:37;;;;;;;0.32;0.20;;;;;;;-2.51;71.65;102790.56;5074392;28;20128;-81
2023/11/22 02:12:06;;;;;;;1.08;0.20;;;;;;;-2.54;71.42;102786.09;5074963;28;20051;-81
2023/11/22 02:14:33;;;;;;;0.30;0.20;;;;;;;-2.54;71.68;102785.22;5073672;28;20049;-71
2023/11/22 02:17:00;;;;;;;0.40;0.20;;;;;;;-2.57;71.56;102775.66;5073817;28;20051;-71
2023/11/22 02:19:27;;;;;;;1.25;0.40;;;;;;;-2.59;71.47;102772.16;5074409;28;20394;-72
2023/11/22 02:21:54;;;;;;;1.02;0.40;;;;;;;-2.59;71.58;102766.13;5073480;28;20051;-71
2023/11/22 02:24:22;;;;;;;1.48;0.20;;;;;;;-2.61;71.26;102760.91;5073816;28;20063;-81
2023/11/22 02:26:49;;;;;;;2.70;0.30;;;;;;;-2.62;71.54;102750.56;5073990;28;20052;-81
2023/11/22 02:29:16;;;;;;;0.55;0.30;;;;;;;-2.65;71.80;102756.34;5074608;28;20055;-81
2023/11/22 02:31:44;;;;;;;0.30;0.17;;;;;;;-2.68;71.68;102751.03;5073973;28;20481;-80
2023/11/22 02:34:11;;;;;;;0.32;0.20;;;;;;;-2.68;71.69;102751.03;5073667;28;20535;-81
2023/11/22 02:36:38;;;;;;;0.45;0.30;;;;;;;-2.69;71.74;102746.72;5073761;28;20481;-81
2023/11/22 02:39:06;;;;;;;0.65;0.28;;;;;;;-2.71;72.17;102743.16;5074392;28;20543;-81
2023/11/22 02:41:34;;;;;;;0.20;0.10;;;;;;;-2.79;71.31;102732.44;5074938;28;20049;-81
2023/11/22 02:44:01;;;;;;;1.90;0.28;;;;;;;-2.75;71.69;102742.06;5074492;28;20044;-80
2023/11/22 02:46:29;;;;;;;0.38;0.20;;;;;;;-2.81;71.25;102726.31;5074015;28;20067;-81
2023/11/22 02:48:55;;;;;;;0.25;0.20;;;;;;;-2.78;71.71;102734.19;5074763;28;20045;-81
2023/11/22 02:51:23;;;;;;;1.60;0.30;;;;;;;-2.79;71.59;102732.44;5074330;28;20393;-81
2023/11/22 02:53:51;;;;;;;1.77;0.30;;;;;;;-2.80;71.67;102722.09;5074328;28;20052;-81
2023/11/22 02:56:17;;;;;;;1.20;0.22;;;;;;;-2.83;71.92;102722.78;5074632;28;20044;-81
2023/11/22 02:58:46;;;;;;;1.52;0.35;;;;;;;-2.83;71.65;102727.00;5073879;28;20048;-81
2023/11/22 03:01:13;;;;;;;0.82;0.20;;;;;;;-2.85;71.50;102715.78;5073902;28;20044;-81
2023/11/22 03:03:41;;;;;;;0.77;0.28;;;;;;;-2.86;71.67;102704.66;5074569;28;20056;-81
2023/11/22 03:06:08;;;;;;;0.60;0.40;;;;;;;-2.87;71.98;102700.34;5073406;28;20040;-82
2023/11/22 03:08:35;;;;;;;0.40;0.20;;;;;;;-2.88;71.93;102701.09;5073710;28;20059;-81
2023/11/22 03:11:02;;;;;;;0.63;0.40;;;;;;;-2.97;71.80;102680.91;5073684;28;20051;-81
2023/11/22 03:13:29;;;;;;;0.70;0.30;;;;;;;-2.90;71.68;102686.44;5073533;28;20045;-81
2023/11/22 03:15:57;;;;;;;0.30;0.20;;;;;;;-2.92;71.72;102677.81;5073791;28;20055;-81
2023/11/22 03:18:24;;;;;;;0.15;0.13;;;;;;;-3.00;71.71;102675.59;5073295;28;20056;-81
2023/11/22 03:20:54;;;;;;;0.22;0.20;;;;;;;-2.97;71.95;102667.25;5073526;28;20489;-81
2023/11/22 03:23:21;;;;;;;0.77;0.30;;;;;;;-2.99;71.56;102669.72;5074125;28;20049;-69
2023/11/22 03:25:48;;;;;;;0.70;0.30;;;;;;;-3.01;72.04;102668.72;5072798;28;20048;-69
2023/11/22 03:28:15;;;;;;;0.70;0.40;;;;;;;-3.02;71.84;102682.28;5074105;28;20457;-69
2023/11/22 03:30:41;;;;;;;1.20;0.38;;;;;;;-3.04;71.75;102678.75;5072864;28;20052;-69
2023/11/22 03:33:10;;;;;;;0.93;0.20;;;;;;;-3.05;71.43;102671.84;5073569;28;20354;-69
2023/11/22 03:35:37;;;;;;;0.40;0.25;;;;;;;-3.06;71.94;102675.19;5073848;28;20102;-69
2023/11/22 03:38:04;;;;;;;0.60;0.20;;;;;;;-3.06;71.93;102680.31;5073745;28;20045;-69
2023/11/22 03:40:31;;;;;;;1.50;0.30;;;;;;;-3.07;71.76;102678.56;5072818;28;20130;-70
2023/11/22 03:42:58;;;;;;;0.75;0.20;;;;;;;-3.09;71.72;102671.56;5073525;28;20048;-69
2023/11/22 03:45:24;;;;;;;0.68;0.30;;;;;;;-3.08;71.74;102681.88;5072748;28;20047;-69
2023/11/22 03:47:51;;;;;;;1.48;0.30;;;;;;;-3.08;71.42;102681.00;5073529;28;20052;-70
2023/11/22 03:50:19;;;;;;;1.85;0.43;;;;;;;-3.09;71.60;102672.44;5076871;28;20076;-69
2023/11/22 03:52:47;;;;;;;2.05;0.60;;;;;;;-3.09;72.09;102676.66;5077444;28;20401;-70
2023/11/22 03:55:13;;;;;;;2.67;0.52;;;;;;;-3.09;71.73;102684.34;5076294;28;20562;-69
2023/11/22 03:57:41;;;;;;;2.28;0.40;;;;;;;-3.10;71.69;102675.78;5077220;28;20474;-69
2023/11/22 04:00:09;;;;;;;2.20;0.40;;;;;;;-3.11;72.21;102676.56;5076718;28;20044;-69
2023/11/22 04:02:36;;;;;;;0.82;0.38;;;;;;;-3.12;71.85;102677.34;5076815;28;20063;-69
2023/11/22 04:05:03;;;;;;;0.85;0.30;;;;;;;-3.18;72.01;102664.16;5076881;28;20048;-69
2023/11/22 04:07:32;;;;;;;3.30;0.75;;;;;;;-3.12;71.80;102672.22;5076342;28;20048;-70
2023/11/22 04:09:59;;;;;;;1.30;0.30;;;;;;;-3.13;71.96;102674.66;5076773;28;20047;-70
2023/11/22 04:12:26;;;;;;;1.55;0.35;;;;;;;-3.16;71.62;102683.03;5076238;28;20106;-68
2023/11/22 04:14:53;;;;;;;1.77;0.40;;;;;;;-3.16;72.09;102693.25;5076217;28;20187;-68
2023/11/22 04:17:20;;;;;;;4.25;0.35;;;;;;;-3.17;71.71;102694.03;5075740;28;20049;-68
2023/11/22 04:19:46;;;;;;;0.40;0.40;;;;;;;-3.20;71.95;102683.59;5075819;28;20045;-69
2023/11/22 04:22:13;;;;;;;2.78;0.38;;;;;;;-3.20;71.65;102691.28;5075829;28;20044;-68
2023/11/22 04:24:42;;;;;;;1.45;0.50;;;;;;;-3.22;71.61;102670.72;5076615;28;20052;-69
2023/11/22 04:27:09;;;;;;;0.90;0.40;;;;;;;-3.23;71.76;102673.19;5075949;28;20135;-68
2023/11/22 04:29:36;;;;;;;2.33;0.50;;;;;;;-3.24;72.03;102667.19;5075505;28;20044;-68
2023/11/22 04:32:03;;;;;;;2.97;0.30;;;;;;;-3.25;71.75;102660.28;5076422;28;20040;-68
2023/11/22 04:34:30;;;;;;;0.85;0.38;;;;;;;-3.25;72.16;102662.84;5076181;28;20098;-67
2023/11/22 04:36:57;;;;;;;3.97;0.40;;;;;;;-3.26;71.90;102655.06;5075447;28;20566;-67
2023/11/22 04:39:24;;;;;;;0.90;0.68;;;;;;;-3.27;72.09;102641.41;5075318;28;20047;-67
2023/11/22 04:41:52;;;;;;;2.05;0.45;;;;;;;-3.26;72.38;102632.09;5076151;28;20090;-67
2023/11/22 04:44:19;;;;;;;1.58;0.50;;;;;;;-3.27;71.83;102630.31;5075806;28;20041;-81
2023/11/22 04:46:46;;;;;;;1.35;0.60;;;;;;;-3.30;71.96;102624.97;5076158;28;20047;-80
2023/11/22 04:49:13;;;;;;;0.95;0.47;;;;;;;-3.29;72.29;102614.00;5076818;28;20484;-83
2023/11/22 04:51:40;;;;;;;2.05;0.90;;;;;;;-3.30;72.30;102607.09;5076135;28;20131;-79
2023/11/22 04:54:07;;;;;;;0.90;0.40;;;;;;;-3.31;71.99;102601.09;5076440;28;20056;-82
2023/11/22 04:56:34;;;;;;;1.08;0.68;;;;;;;-3.33;72.27;102602.69;5075495;28;20050;-80
2023/11/22 04:59:03;;;;;;;1.70;0.47;;;;;;;-3.32;72.00;102603.56;5076515;28;20045;-80
2023/11/22 05:01:32;;;;;;;2.40;0.80;;;;;;;-3.34;72.34;102590.66;5075201;28;20051;-80
2023/11/22 05:03:59;;;;;;;0.43;0.40;;;;;;;-3.34;71.85;102589.78;5076266;28;20059;-80
2023/11/22 05:06:27;;;;;;;1.67;0.63;;;;;;;-3.35;71.64;102582.91;5076162;28;20044;-80
2023/11/22 05:08:54;;;;;;;0.70;0.40;;;;;;;-3.34;72.22;102589.78;5076378;28;20056;-79
2023/11/22 05:11:21;;;;;;;1.48;0.55;;;;;;;-3.34;72.18;102588.13;5076354;28;20132;-83
2023/11/22 05:13:50;;;;;;;2.72;1.73;;;;;;;-3.35;72.13;102580.34;5075219;28;20040;-79
2023/11/22 05:16:18;;;;;;;1.90;0.50;;;;;;;-3.35;71.85;102582.91;5075647;28;20492;-82
2023/11/22 05:18:45;;;;;;;0.98;0.57;;;;;;;-3.35;71.95;102577.81;5075891;28;20049;-80
2023/11/22 05:21:12;;;;;;;3.05;0.88;;;;;;;-3.35;72.43;102565.03;5075221;28;20052;-80
2023/11/22 05:23:38;;;;;;;2.42;0.50;;;;;;;-3.40;72.08;102562.16;5075019;28;20055;-80
2023/11/22 05:26:05;;;;;;;0.98;0.47;;;;;;;-3.36;72.03;102555.56;5076189;28;20397;-81
2023/11/22 05:28:33;;;;;;;1.20;0.68;;;;;;;-3.36;72.24;102561.56;5075002;28;20056;-82
2023/11/22 05:31:00;;;;;;;1.00;0.50;;;;;;;-3.35;71.89;102567.59;5075778;28;20044;-79
2023/11/22 05:33:28;;;;;;;0.73;0.50;;;;;;;-3.36;72.10;102570.91;5075411;28;20041;-82
2023/11/22 05:35:55;;;;;;;0.70;0.52;;;;;;;-3.35;72.29;102559.91;5075806;28;20049;-79
2023/11/22 05:38:22;;;;;;;0.57;0.40;;;;;;;-3.36;72.10;102561.56;5074683;28;20538;-82
2023/11/22 05:40:48;;;;;;;1.20;0.50;;;;;;;-3.35;72.04;102562.47;5075820;28;20044;-82
2023/11/22 05:43:17;;;;;;;1.33;0.63;;;;;;;-3.34;72.24;102564.22;5075495;28;20397;-79
2023/11/22 05:45:49;;;;;;;1.20;0.50;;;;;;;-3.33;72.24;102566.00;5075375;28;20488;-79
2023/11/22 05:48:16;;;;;;;2.47;0.60;;;;;;;-3.34;71.83;102554.91;5075494;28;20086;-82
2023/11/22 05:50:45;;;;;;;1.00;0.50;;;;;;;-3.34;72.29;102554.91;5074475;28;20045;-81
2023/11/22 05:53:12;;;;;;;0.63;0.40;;;;;;;-3.35;72.46;102557.38;5075496;28;20343;-68
2023/11/22 05:55:39;;;;;;;1.42;0.50;;;;;;;-3.35;72.29;102560.81;5073848;28;20493;-68
2023/11/22 05:58:06;;;;;;;2.25;0.65;;;;;;;-3.35;72.32;102547.13;5073604;28;20127;-68
2023/11/22 06:00:32;;;;;;;1.10;0.40;;;;;;;-3.34;72.20;102543.78;5073909;28;20154;-68
2023/11/22 06:02:59;;;;;;;0.90;0.50;;;;;;;-3.34;72.32;102546.34;5074528;28;20384;-68
2023/11/22 06:05:26;;;;;;;0.80;0.52;;;;;;;-3.33;72.31;102548.09;5074880;28;20048;-68
2023/11/22 06:07:55;;;;;;;1.52;0.50;;;;;;;-3.35;72.19;102532.69;5073681;28;20486;-68
2023/11/22 06:10:22;;;;;;;1.00;0.40;;;;;;;-3.33;72.48;102530.22;5073651;28;20505;-68
2023/11/22 06:12:49;;;;;;;2.72;0.73;;;;;;;-3.34;72.20;102528.47;5074025;28;20055;-68
2023/11/22 06:15:16;;;;;;;0.88;0.35;;;;;;;-3.33;72.44;102535.31;5073832;28;20044;-68
2023/11/22 06:17:43;;;;;;;1.85;0.32;;;;;;;-3.33;72.49;102530.22;5073871;28;20044;-68
2023/11/22 06:20:11;;;;;;;0.85;0.40;;;;;;;-3.35;72.32;102527.59;5073497;28;20051;-68
2023/11/22 06:22:40;;;;;;;0.90;0.50;;;;;;;-3.36;72.10;102518.13;5073491;28;20101;-69
2023/11/22 06:25:10;;;;;;;2.60;0.50;;;;;;;-3.35;72.17;102516.47;5073403;28;20052;-68
2023/11/22 06:27:37;;;;;;;1.05;0.50;;;;;;;-3.36;72.39;102509.56;5073550;28;20045;-69
2023/11/22 06:30:06;;;;;;;1.80;0.50;;;;;;;-3.37;72.29;102493.38;5073494;28;20049;-69
2023/11/22 06:32:33;;;;;;;3.22;0.50;;;;;;;-3.36;72.09;102489.13;5073971;28;20080;-69
2023/11/22 06:35:00;;;;;;;1.05;0.50;;;;;;;-3.43;72.17;102475.97;5073353;28;20047;-69
2023/11/22 06:37:27;;;;;;;1.75;1.02;;;;;;;-3.38;71.99;102473.72;5074568;28;20045;-69
2023/11/22 06:39:54;;;;;;;1.25;0.60;;;;;;;-3.39;72.49;102461.72;5074036;28;20127;-69
2023/11/22 06:42:22;;;;;;;1.50;0.50;;;;;;;-3.40;71.98;102463.38;5073868;28;20486;-69
2023/11/22 06:44:49;;;;;;;1.73;0.47;;;;;;;-3.40;72.15;102463.38;5073981;28;20045;-69
2023/11/22 06:47:16;;;;;;;2.05;0.70;;;;;;;-3.41;71.83;102456.53;5073303;28;20503;-69
2023/11/22 06:49:43;;;;;;;0.80;0.40;;;;;;;-3.42;72.21;102448.75;5074302;28;20052;-68
2023/11/22 06:52:10;;;;;;;2.85;0.40;;;;;;;-3.42;72.21;102446.19;5073214;28;20044;-69
2023/11/22 06:54:37;;;;;;;1.25;0.50;;;;;;;-3.42;72.17;102446.19;5073439;28;20047;-69
2023/11/22 06:57:04;;;;;;;1.20;0.60;;;;;;;-3.44;72.04;102430.78;5073053;28;20131;-69
2023/11/22 06:59:32;;;;;;;1.02;0.60;;;;;;;-3.46;72.17;102440.00;5074050;28;20398;-70
2023/11/22 07:01:59;;;;;;;1.67;0.50;;;;;;;-3.45;72.42;102448.53;5074299;28;20049;-69
2023/11/22 07:04:27;;;;;;;1.40;0.60;;;;;;;-3.46;72.38;102432.34;5074595;28;20410;-72
2023/11/22 07:06:54;;;;;;;1.95;0.70;;;;;;;-3.48;72.30;102421.13;5073324;28;20083;-74
2023/11/22 07:09:21;;;;;;;2.15;1.35;;;;;;;-3.47;72.34;102417.81;5072970;28;20497;-73
2023/11/22 07:11:48;;;;;;;3.65;0.80;;;;;;;-3.48;72.13;102439.00;5072924;28;20131;-74
2023/11/22 07:14:16;;;;;;;0.90;0.50;;;;;;;-3.48;72.55;102439.00;5072979;28;20056;-74
2023/11/22 07:16:44;;;;;;;1.33;0.70;;;;;;;-3.46;72.43;102421.25;5073707;28;20048;-74
2023/11/22 07:19:12;;;;;;;1.88;0.90;;;;;;;-3.46;72.67;102416.13;5073685;28;20049;-74
2023/11/22 07:21:39;;;;;;;1.30;0.75;;;;;;;-3.46;72.67;102423.78;5072864;28;20044;-73
2023/11/22 07:24:08;;;;;;;0.93;0.50;;;;;;;-3.44;72.73;102428.22;5075706;28;20044;-75
2023/11/22 07:26:35;;;;;;;2.53;0.80;;;;;;;-3.42;72.69;102421.50;5076877;28;20044;-74
2023/11/22 07:29:02;;;;;;;2.33;0.70;;;;;;;-3.40;72.99;102421.63;5076881;28;20048;-74
2023/11/22 07:31:30;;;;;;;1.40;0.80;;;;;;;-3.38;72.96;102419.19;5076600;28;20056;-74
2023/11/22 07:33:58;;;;;;;1.88;1.33;;;;;;;-3.39;72.88;102418.28;5076538;28;20493;-74
2023/11/22 07:36:25;;;;;;;4.70;1.38;;;;;;;-3.36;72.96;102425.25;5076518;28;20489;-74
2023/11/22 07:38:53;;;;;;;2.15;1.00;;;;;;;-3.35;72.63;102424.50;5077303;28;20098;-74
2023/11/22 07:41:21;;;;;;;3.17;1.25;;;;;;;-3.33;73.24;102422.91;5076599;28;20048;-75
2023/11/22 07:43:48;;;;;;;2.70;1.20;;;;;;;-3.31;73.13;102416.22;5077281;28;20048;-74
2023/11/22 07:46:14;;;;;;;2.75;1.13;;;;;;;-3.29;73.04;102419.78;5076317;28;20044;-74
2023/11/22 07:48:44;;;;;;;3.90;1.20;;;;;;;-3.28;73.19;102411.31;5077485;28;20397;-75
2023/11/22 07:51:15;;;;;;;3.08;1.27;;;;;;;-3.24;73.25;102408.19;5076329;28;20047;-75
2023/11/22 07:53:43;;;;;;;2.95;1.27;;;;;;;-3.24;73.53;102403.94;5077338;28;20054;-75
2023/11/22 07:56:11;;;;;;;2.55;1.08;;;;;;;-3.21;73.29;102404.13;5077069;28;20122;-74
2023/11/22 07:58:38;;;;;;;3.47;1.60;;;;;;;-3.17;73.44;102397.53;5075995;28;20040;-75
2023/11/22 08:01:06;;;;;;;4.55;1.33;;;;;;;-3.15;73.53;102393.41;5077167;28;20051;-74
2023/11/22 08:03:34;;;;;;;5.90;1.40;;;;;;;-3.12;73.63;102382.50;5076678;28;20055;-70
2023/11/22 08:06:02;;;;;;;4.28;1.48;;;;;;;-3.11;73.60;102380.03;5076978;28;20049;-70
2023/11/22 08:08:31;;;;;;;2.53;1.27;;;;;;;-3.06;73.86;102372.66;5076862;28;20052;-70
2023/11/22 08:10:57;;;;;;;4.03;1.67;;;;;;;-3.04;73.82;102378.75;5075965;28;20048;-70
2023/11/22 08:13:24;;;;;;;5.05;1.77;;;;;;;-3.00;73.89;102367.94;5075856;28;20497;-74
2023/11/22 08:15:51;;;;;;;4.50;1.75;;;;;;;-2.98;73.93;102351.91;5076760;28;20044;-74
2023/11/22 08:18:19;;;;;;;4.00;1.80;;;;;;;-2.94;74.11;102356.41;5075887;28;20076;-75
2023/11/22 08:20:46;;;;;;;6.05;2.42;;;;;;;-2.89;74.24;102355.81;5076740;28;20048;-74
2023/11/22 08:23:14;;;;;;;8.00;2.70;;;;;;;-2.86;74.15;102343.22;5076935;28;20139;-74
2023/11/22 08:25:43;;;;;;;6.28;3.38;;;;;;;-2.82;74.04;102322.13;5076872;28;20052;-75
2023/11/22 08:28:10;;;;;;;9.27;3.58;;;;;;;-2.79;74.60;102319.75;5075981;28;20406;-74
2023/11/22 08:30:37;;;;;;;6.35;2.72;;;;;;;-2.77;74.69;102315.63;5075967;28;20048;-74
2023/11/22 08:33:04;;;;;;;5.40;2.70;;;;;;;-2.71;74.70;102305.75;5075728;28;20060;-75
2023/11/22 08:35:31;;;;;;;5.80;2.42;;;;;;;-2.68;74.36;102295.72;5076604;28;20044;-75
2023/11/22 08:37:58;;;;;;;4.88;2.17;;;;;;;-2.64;74.85;102287.44;5076299;28;20094;-74
2023/11/22 08:40:25;;;;;;;6.10;2.83;;;;;;;-2.60;74.37;102276.59;5075387;28;20048;-75
2023/11/22 08:42:54;;;;;;;6.93;2.97;;;;;;;-2.57;74.35;102273.34;5076319;28;20049;-74
2023/11/22 08:45:21;;;;;;;9.07;3.22;;;;;;;-2.55;75.11;102261.53;5075541;28;20045;-74
2023/11/22 08:47:49;;;;;;;3.38;1.63;;;;;;;-2.51;74.95;102243.88;5075243;28;20044;-75
2023/11/22 08:50:17;;;;;;;3.88;2.13;;;;;;;-2.46;74.97;102245.81;5076432;28;20393;-74
2023/11/22 08:52:44;;;;;;;3.47;2.30;;;;;;;-2.43;75.20;102231.53;5075880;28;20448;-74
2023/11/22 08:55:14;;;;;;;3.65;1.85;;;;;;;-2.39;75.14;102227.47;5075373;28;20044;-74
2023/11/22 08:57:40;;;;;;;3.95;1.55;;;;;;;-2.36;75.49;102223.41;5076269;28;20102;-74
2023/11/22 09:00:11;;;;;;;4.63;2.00;;;;;;;-2.32;75.04;102216.78;5075024;28;20405;-74
2023/11/22 09:02:38;;;;;;;2.20;1.38;;;;;;;-2.29;74.95;102201.59;5075794;28;20051;-74
2023/11/22 09:05:08;;;;;;;2.33;1.08;;;;;;;-2.24;74.88;102200.19;5075041;28;20041;-74
2023/11/22 09:07:35;;;;;;;3.88;1.38;;;;;;;-2.20;75.21;102194.44;5076089;28;20044;-74
2023/11/22 09:10:09;;;;;;;2.17;0.93;;;;;;;-2.15;75.55;102181.91;5075135;28;20076;-74
2023/11/22 09:12:39;;;;;;;1.65;1.15;;;;;;;-2.11;75.35;102178.72;5075830;28;20066;-71
2023/11/22 09:15:09;;;;;;;0.93;0.50;;;;;;;-2.06;75.43;102167.94;5075585;28;20048;-75
2023/11/22 09:17:36;;;;;;;1.35;0.73;;;;;;;-2.02;75.20;102156.19;5075586;28;20047;-74
2023/11/22 09:20:06;;;;;;;1.23;0.95;;;;;;;-1.98;76.20;102149.56;5074706;28;20048;-75
2023/11/22 09:22:33;;;;;;;1.20;0.88;;;;;;;-1.94;76.42;102146.34;5075778;28;20045;-69
2023/11/22 09:25:00;;;;;;;1.70;0.90;;;;;;;-1.90;76.50;102148.31;5074516;28;20048;-69
2023/11/22 09:27:27;;;;;;;2.00;0.80;;;;;;;-1.87;76.08;102136.53;5075451;28;20048;-70
2023/11/22 09:29:54;;;;;;;1.30;0.93;;;;;;;-1.81;76.15;102143.66;5074287;28;20522;-69
2023/11/22 09:32:23;;;;;;;1.15;0.63;;;;;;;-1.77;76.25;102130.22;5075374;28;20044;-70
2023/11/22 09:34:50;;;;;;;0.80;0.70;;;;;;;-1.72;76.09;102122.78;5075213;28;20044;-69
2023/11/22 09:37:17;;;;;;;1.50;1.00;;;;;;;-1.68;76.10;102120.47;5074361;28;20481;-70
2023/11/22 09:39:44;;;;;;;1.00;0.60;;;;;;;-1.64;76.37;102116.38;5075278;28;20052;-69
2023/11/22 09:42:13;;;;;;;2.15;0.82;;;;;;;-1.60;76.67;102113.16;5074454;28;20051;-70
2023/11/22 09:44:39;;;;;;;0.95;0.50;;;;;;;-1.55;76.17;102118.53;5074284;28;20565;-70
2023/11/22 09:47:07;;;;;;;0.90;0.60;;;;;;;-1.51;77.03;102107.63;5073711;28;20048;-70
2023/11/22 09:49:36;;;;;;;0.85;0.55;;;;;;;-1.47;76.44;102104.47;5074076;28;20056;-69
2023/11/22 09:52:05;;;;;;;0.70;0.50;;;;;;;-1.42;77.04;102087.63;5074906;28;20048;-69
2023/11/22 09:54:33;;;;;;;1.00;0.70;;;;;;;-1.38;77.04;102075.03;5074871;28;20127;-69
2023/11/22 09:57:02;;;;;;;0.85;0.60;;;;;;;-1.34;76.28;102070.06;5075609;28;20440;-69
2023/11/22 09:59:32;;;;;;;1.33;0.60;;;;;;;-1.30;76.34;102065.19;5073840;28;20489;-69
2023/11/22 10:02:00;;;;;;;0.82;0.47;;;;;;;-1.26;76.63;102053.38;5074188;28;20122;-70
2023/11/22 10:04:28;;;;;;;0.60;0.40;;;;;;;-1.23;76.60;102051.84;5074324;28;20052;-70
2023/11/22 10:06:59;;;;;;;0.98;0.65;;;;;;;-1.19;76.77;102032.41;5073750;28;20100;-69
2023/11/22 10:09:29;;;;;;;0.93;0.50;;;;;;;-1.15;77.05;102032.59;5073744;28;20082;-70
2023/11/22 10:11:59;;;;;;;1.00;0.70;;;;;;;-1.10;76.71;102029.41;5074208;28;20539;-69
2023/11/22 10:14:26;;;;;;;0.60;0.38;;;;;;;-1.07;76.39;102024.44;5074617;28;20055;-70
2023/11/22 10:17:00;;;;;;;0.70;0.50;;;;;;;-1.03;76.43;102009.25;5073660;28;20040;-70
2023/11/22 10:19:28;;;;;;;0.70;0.50;;;;;;;-1.01;76.53;101994.81;5074125;28;20052;-69
2023/11/22 10:22:07;;;;;;;0.50;0.30;;;;;;;-0.96;76.28;101989.91;5073531;28;20048;-69
2023/11/22 10:24:34;;;;;;;0.60;0.50;;;;;;;-0.94;76.39;101975.47;5074518;28;20102;-70
2023/11/22 10:27:02;;;;;;;1.88;1.25;;;;;;;-0.91;76.38;101973.94;5074661;28;20048;-70
2023/11/22 10:29:29;;;;;;;1.17;0.43;;;;;;;-0.88;76.03;101954.34;5073501;28;20055;-70
2023/11/22 10:31:56;;;;;;;0.80;0.40;;;;;;;-0.84;75.90;101943.44;5073690;28;20055;-70
2023/11/22 10:34:25;;;;;;;2.70;0.40;;;;;;;-0.81;76.13;101925.63;5074543;28;20040;-73
2023/11/22 10:36:52;;;;;;;1.17;0.57;;;;;;;-0.78;76.36;101921.50;5074104;28;20045;-73
2023/11/22 10:39:26;;;;;;;0.73;0.60;;;;;;;-0.77;76.17;101907.91;5073189;28;20072;-73
2023/11/22 10:41:52;;;;;;;0.63;0.40;;;;;;;-0.73;76.21;101894.38;5073268;28;20071;-73
2023/11/22 10:44:22;;;;;;;1.30;0.60;;;;;;;-0.70;75.64;101889.38;5073373;28;20051;-73
2023/11/22 10:46:51;;;;;;;1.30;0.50;;;;;;;-0.66;76.26;101875.00;5073510;28;20048;-73
2023/11/22 10:49:18;;;;;;;1.17;0.50;;;;;;;-0.65;76.00;101881.03;5074040;28;20131;-73
2023/11/22 10:51:50;;;;;;;0.47;0.30;;;;;;;-0.63;76.26;101881.97;5074161;28;20442;-73
2023/11/22 10:54:17;;;;;;;1.55;0.60;;;;;;;-0.60;76.49;101866.69;5073201;28;20055;-73
2023/11/22 10:56:51;;;;;;;2.45;0.52;;;;;;;-0.59;76.36;101861.66;5073985;28;20048;-73
2023/11/22 10:59:23;;;;;;;1.53;0.87;;;;;;;-0.56;76.26;101848.06;5075078;28;20083;-73
2023/11/22 11:01:52;;;;;;;1.60;0.70;;;;;;;-0.55;76.39;101843.00;5077204;28;20087;-73
2023/11/22 11:04:28;;;;;;;1.02;0.80;;;;;;;-0.52;76.03;101826.84;5077124;28;20071;-73
2023/11/22 11:06:56;;;;;;;2.00;1.40;;;;;;;-0.49;76.43;101816.72;5078308;28;20049;-73
2023/11/22 11:09:26;;;;;;;2.38;1.33;;;;;;;-0.47;75.80;101802.28;5077196;28;20130;-73
2023/11/22 11:11:56;;;;;;;4.00;1.83;;;;;;;-0.44;76.39;101788.69;5078153;28;20102;-73
2023/11/22 11:14:24;;;;;;;3.25;1.38;;;;;;;-0.42;76.02;101776.81;5077976;28;20051;-73
2023/11/22 11:16:54;;;;;;;2.63;1.45;;;;;;;-0.40;76.03;101755.50;5076976;28;20052;-73
2023/11/22 11:19:22;;;;;;;2.85;1.15;;;;;;;-0.38;76.37;101753.00;5077021;28;20048;-73
2023/11/22 11:21:49;;;;;;;3.45;1.48;;;;;;;-0.36;75.82;101742.00;5077398;28;20165;-73
2023/11/22 11:24:16;;;;;;;2.17;1.40;;;;;;;-0.35;76.30;101730.91;5076897;28;20051;-73
2023/11/22 11:26:51;;;;;;;2.65;1.05;;;;;;;-0.32;76.03;101728.47;5076848;28;20045;-73